This is the latest recevied weather packets stored in our database for station/object K7LDN-13. If no packets are shown the sender has not sent any weather packets the latest 10 day(s).
| Time | Temp. | Humidity | Pressure | Rain* | Wind** | Luminosity | Snow |
|---|---|---|---|---|---|---|---|
| 1777846789 | 23.89° C | 14% | 1014 hPa | 0 mm | - | 298 W/m² | - |
| 1777846487 | 24.44° C | 13% | 1014.1 hPa | 0 mm | - | 344 W/m² | - |
| 1777846184 | 24.44° C | 15% | 1014 hPa | 0 mm | - | 398 W/m² | - |
| 1777845880 | 24.44° C | 13% | 1014.2 hPa | 0 mm | - | 367 W/m² | - |
| 1777845577 | 24.44° C | 14% | 1014.5 hPa | 0 mm | - | 394 W/m² | - |
| 1777845274 | 24.44° C | 14% | 1014.5 hPa | 0 mm | - | 431 W/m² | - |
| 1777844972 | 25° C | 14% | 1014.5 hPa | 0 mm | - | 511 W/m² | - |
| 1777844669 | 25° C | 14% | 1014.8 hPa | 0 mm | - | 594 W/m² | - |
| 1777844366 | 25° C | 14% | 1014.8 hPa | 0 mm | - | 601 W/m² | - |
| 1777844065 | 25° C | 15% | 1014.8 hPa | 0 mm | - | 736 W/m² | - |
| 1777843760 | 24.44° C | 13% | 1014.8 hPa | 0 mm | - | 749 W/m² | - |
| 1777843458 | 24.44° C | 14% | 1014.9 hPa | 0 mm | - | 768 W/m² | - |
| 1777843155 | 24.44° C | 14% | 1015 hPa | 0 mm | - | 716 W/m² | - |
| 1777842852 | 23.89° C | 14% | 1015.3 hPa | 0 mm | - | 476 W/m² | - |
| 1777842547 | 24.44° C | 14% | 1015.3 hPa | 0 mm | - | 718 W/m² | - |
| 1777842245 | 23.89° C | 15% | 1015.5 hPa | 0 mm | - | 631 W/m² | - |
| 1777841939 | 24.44° C | 14% | 1015.5 hPa | 0 mm | - | 733 W/m² | - |
| 1777841636 | 23.89° C | 15% | 1015.7 hPa | 0 mm | - | 590 W/m² | - |
| 1777841333 | 24.44° C | 15% | 1015.6 hPa | 0 mm | - | 700 W/m² | - |
| 1777841030 | 24.44° C | 16% | 1015.6 hPa | 0 mm | - | 681 W/m² | - |
| 1777840727 | 23.89° C | 16% | 1015.7 hPa | 0 mm | - | 765 W/m² | - |
| 1777840424 | 23.89° C | 16% | 1015.9 hPa | 0 mm | - | 799 W/m² | - |
| 1777840121 | 23.89° C | 17% | 1015.9 hPa | 0 mm | - | 792 W/m² | - |
| 1777839819 | 23.89° C | 18% | 1015.9 hPa | 0 mm | - | 645 W/m² | - |
| 1777839518 | 23.33° C | 18% | 1016.2 hPa | 0 mm | - | 608 W/m² | - |
* Rain latest hour (hover to see other rain measurements)
** Current wind speed in m/s (hover to see current wind gust speed)